createdAt,value
2023-02-18T00:01:30.304Z,14.50
2023-02-18T00:03:58.304Z,14.60
2023-02-18T00:06:27.600Z,14.60
2023-02-18T00:08:55.826Z,14.60
2023-02-18T00:11:22.890Z,14.60
2023-02-18T00:13:51.710Z,14.60
2023-02-18T00:16:18.506Z,14.60
2023-02-18T00:18:45.395Z,14.50
2023-02-18T00:21:12.148Z,14.60
2023-02-18T00:23:38.801Z,14.60
2023-02-18T00:26:08.571Z,14.60
2023-02-18T00:28:35.699Z,14.60
2023-02-18T00:31:18.052Z,14.60
2023-02-18T00:33:44.863Z,14.60
2023-02-18T00:36:14.980Z,14.60
2023-02-18T00:38:49.742Z,14.50
2023-02-18T00:41:16.851Z,14.50
2023-02-18T00:43:43.941Z,14.50
2023-02-18T00:46:11.666Z,14.40
2023-02-18T00:48:38.614Z,14.40
2023-02-18T00:51:07.038Z,14.30
2023-02-18T00:53:34.651Z,14.30
2023-02-18T00:56:02.031Z,14.30
2023-02-18T00:58:28.975Z,14.30
2023-02-18T01:00:56.239Z,14.30
2023-02-18T01:03:24.124Z,14.30
2023-02-18T01:05:51.864Z,14.30
2023-02-18T01:08:21.040Z,14.30
2023-02-18T01:10:50.303Z,14.30
2023-02-18T01:13:17.437Z,14.30
2023-02-18T01:15:44.448Z,14.30
2023-02-18T01:18:11.385Z,14.40
2023-02-18T01:20:40.553Z,14.40
2023-02-18T01:23:07.789Z,14.40
2023-02-18T01:25:36.686Z,14.40
2023-02-18T01:28:04.883Z,14.30
2023-02-18T01:30:31.673Z,14.30
2023-02-18T01:32:58.862Z,14.20
2023-02-18T01:35:26.093Z,14.10
2023-02-18T01:37:53.001Z,14.20
2023-02-18T01:40:23.136Z,14.20
2023-02-18T01:42:50.762Z,14.10
2023-02-18T01:45:35.813Z,14.10
2023-02-18T01:48:30.122Z,14.10
2023-02-18T01:51:04.416Z,14.10
2023-02-18T01:54:00.368Z,14.20
2023-02-18T01:56:37.842Z,14.20
2023-02-18T01:59:11.553Z,14.20
2023-02-18T02:01:41.842Z,14.30
2023-02-18T02:04:08.671Z,14.30
2023-02-18T02:06:35.786Z,14.30
2023-02-18T02:09:05.108Z,14.30
2023-02-18T02:12:17.591Z,14.30
2023-02-18T02:15:24.164Z,14.30
2023-02-18T02:17:56.638Z,14.30
2023-02-18T02:20:42.955Z,14.20
2023-02-18T02:23:41.390Z,14.20
2023-02-18T02:26:08.185Z,14.20
2023-02-18T02:28:56.943Z,14.20
2023-02-18T02:31:29.392Z,14.20
2023-02-18T02:34:17.945Z,14.20
2023-02-18T02:36:56.288Z,14.10
2023-02-18T02:39:54.122Z,14.10
2023-02-18T02:42:41.480Z,14.00
2023-02-18T02:45:13.688Z,14.00
2023-02-18T02:48:28.036Z,14.00
2023-02-18T02:51:18.132Z,14.00
2023-02-18T02:53:44.958Z,14.00
2023-02-18T02:56:20.721Z,14.10
2023-02-18T02:59:16.756Z,14.10
2023-02-18T03:02:06.584Z,14.10
2023-02-18T03:04:39.089Z,14.00
2023-02-18T03:07:38.053Z,14.00
2023-02-18T03:10:20.440Z,14.00
2023-02-18T03:13:14.353Z,14.00
2023-02-18T03:16:05.121Z,13.90
2023-02-18T03:18:43.616Z,13.90
2023-02-18T03:21:25.497Z,13.90
2023-02-18T03:24:14.683Z,13.90
2023-02-18T03:26:46.379Z,13.90
2023-02-18T03:29:16.015Z,13.90
2023-02-18T03:31:45.578Z,13.90
2023-02-18T03:34:18.540Z,13.90
2023-02-18T03:36:45.884Z,13.90
2023-02-18T03:39:16.531Z,13.90
2023-02-18T03:41:44.452Z,13.90
2023-02-18T03:44:12.218Z,13.90
2023-02-18T03:46:43.631Z,13.80
2023-02-18T03:49:12.351Z,13.80
2023-02-18T03:51:39.058Z,13.80
2023-02-18T03:54:05.899Z,13.80
2023-02-18T03:56:33.400Z,13.80
2023-02-18T03:59:00.122Z,13.80
2023-02-18T04:01:27.205Z,13.80
2023-02-18T04:03:55.472Z,13.80
2023-02-18T04:06:23.266Z,13.80
2023-02-18T04:08:50.223Z,13.80
2023-02-18T04:11:17.125Z,13.80
2023-02-18T04:13:43.864Z,13.70
2023-02-18T04:16:10.598Z,13.70
2023-02-18T04:18:39.369Z,13.70
2023-02-18T04:21:06.484Z,13.70
2023-02-18T04:23:33.285Z,13.70
2023-02-18T04:25:59.971Z,13.70
2023-02-18T04:28:26.751Z,13.70
2023-02-18T04:30:54.451Z,13.70
2023-02-18T04:33:21.194Z,13.70
2023-02-18T04:35:47.980Z,13.70
2023-02-18T04:38:14.826Z,13.70
2023-02-18T04:40:41.599Z,13.70
2023-02-18T04:43:08.309Z,13.70
2023-02-18T04:45:34.977Z,13.70
2023-02-18T04:48:01.681Z,13.70
2023-02-18T04:50:30.471Z,13.70
2023-02-18T04:52:57.123Z,13.70
2023-02-18T04:55:23.881Z,13.60
2023-02-18T04:57:50.595Z,13.50
2023-02-18T05:00:19.908Z,13.50
2023-02-18T05:02:46.845Z,13.50
2023-02-18T05:05:14.532Z,13.50
2023-02-18T05:07:42.488Z,13.50
2023-02-18T05:10:11.476Z,13.50
2023-02-18T05:12:38.163Z,13.50
2023-02-18T05:15:05.230Z,13.50
2023-02-18T05:17:32.215Z,13.50
2023-02-18T05:19:58.965Z,13.60
2023-02-18T05:22:25.704Z,13.60
2023-02-18T05:24:52.417Z,13.60
2023-02-18T05:27:19.154Z,13.60
2023-02-18T05:29:45.929Z,13.60
2023-02-18T05:32:12.729Z,13.60
2023-02-18T05:34:39.549Z,13.70
2023-02-18T05:37:06.259Z,13.70
2023-02-18T05:39:32.963Z,13.80
2023-02-18T05:41:59.700Z,13.80
2023-02-18T05:44:33.368Z,13.90
2023-02-18T05:47:02.396Z,13.90
2023-02-18T05:49:30.393Z,13.90
2023-02-18T05:51:57.636Z,13.90
2023-02-18T05:54:25.183Z,13.90
2023-02-18T05:56:52.195Z,13.90
2023-02-18T05:59:19.826Z,13.90
2023-02-18T06:01:47.104Z,13.90
2023-02-18T06:04:14.189Z,13.90
2023-02-18T06:06:41.191Z,13.90
2023-02-18T06:09:09.661Z,13.80
2023-02-18T06:11:36.809Z,13.90
2023-02-18T06:14:03.681Z,13.90
2023-02-18T06:16:30.639Z,13.90
2023-02-18T06:18:57.735Z,13.90
2023-02-18T06:21:24.826Z,13.90
2023-02-18T06:23:51.914Z,13.80
2023-02-18T06:26:18.562Z,13.80
2023-02-18T06:28:45.345Z,13.80
2023-02-18T06:31:12.141Z,13.80
2023-02-18T06:33:38.952Z,13.70
2023-02-18T06:36:09.344Z,13.70
2023-02-18T06:38:36.546Z,13.70
2023-02-18T06:41:03.843Z,13.80
2023-02-18T06:43:30.827Z,13.80
2023-02-18T06:45:57.797Z,13.80
2023-02-18T06:48:24.726Z,13.70
2023-02-18T06:50:51.569Z,13.80
2023-02-18T06:53:18.248Z,13.80
2023-02-18T06:55:45.783Z,13.80
2023-02-18T06:58:13.110Z,13.80
2023-02-18T07:00:40.101Z,13.80
2023-02-18T07:03:08.344Z,13.80
2023-02-18T07:05:35.056Z,13.80
2023-02-18T07:08:02.037Z,13.70
2023-02-18T07:10:28.854Z,13.70
2023-02-18T07:12:55.515Z,13.60
2023-02-18T07:15:24.325Z,13.60
2023-02-18T07:17:51.942Z,13.60
2023-02-18T07:20:20.161Z,13.60
2023-02-18T07:22:47.399Z,13.50
2023-02-18T07:25:14.624Z,13.50
2023-02-18T07:27:41.424Z,13.60
2023-02-18T07:30:09.209Z,13.60
2023-02-18T07:32:36.325Z,13.60
2023-02-18T07:35:04.965Z,13.70
2023-02-18T07:37:32.225Z,13.60
2023-02-18T07:39:59.164Z,13.60
2023-02-18T07:42:25.894Z,13.60
2023-02-18T07:44:52.560Z,13.50
2023-02-18T07:47:19.697Z,13.50
2023-02-18T07:49:46.993Z,13.50
2023-02-18T07:52:14.820Z,13.40
2023-02-18T07:54:41.560Z,13.40
2023-02-18T07:57:08.256Z,13.40
2023-02-18T07:59:35.037Z,13.30
2023-02-18T08:02:01.834Z,13.30
2023-02-18T08:04:28.651Z,13.20
2023-02-18T08:06:55.371Z,13.20
2023-02-18T08:09:22.047Z,13.20
2023-02-18T08:11:48.763Z,13.20
2023-02-18T08:14:15.489Z,13.20
2023-02-18T08:16:42.221Z,13.20
2023-02-18T08:19:09.810Z,13.30
2023-02-18T08:21:36.597Z,13.30
2023-02-18T08:24:03.532Z,13.40
2023-02-18T08:26:30.204Z,13.40
2023-02-18T08:28:56.949Z,13.50
2023-02-18T08:31:26.729Z,13.50
2023-02-18T08:33:55.087Z,13.40
2023-02-18T08:36:22.299Z,13.30
2023-02-18T08:38:49.093Z,13.40
2023-02-18T08:41:18.976Z,13.40
2023-02-18T08:43:46.399Z,13.40
2023-02-18T08:46:16.006Z,13.40
2023-02-18T08:48:44.415Z,13.40
2023-02-18T08:51:17.229Z,13.40
2023-02-18T08:53:45.047Z,13.40
2023-02-18T08:56:13.237Z,13.40
2023-02-18T08:58:40.512Z,13.30
2023-02-18T09:01:09.379Z,13.40
2023-02-18T09:03:36.759Z,13.40
2023-02-18T09:06:03.790Z,13.40
2023-02-18T09:08:31.005Z,13.30
2023-02-18T09:10:59.958Z,13.30
2023-02-18T09:13:27.113Z,13.30
2023-02-18T09:16:13.356Z,13.30
2023-02-18T09:18:40.496Z,13.30
2023-02-18T09:21:09.492Z,13.30
2023-02-18T09:23:36.961Z,13.30
2023-02-18T09:26:08.825Z,13.30
2023-02-18T09:28:35.974Z,13.40
2023-02-18T09:31:11.276Z,13.40
2023-02-18T09:33:40.815Z,13.40
2023-02-18T09:36:08.195Z,13.40
2023-02-18T09:38:37.154Z,13.40
2023-02-18T09:41:10.700Z,13.40
2023-02-18T09:43:51.110Z,13.30
2023-02-18T09:46:26.293Z,13.30
2023-02-18T09:48:53.641Z,13.30
2023-02-18T09:51:20.727Z,13.30
2023-02-18T09:53:48.244Z,13.40
2023-02-18T09:56:30.589Z,13.40
2023-02-18T09:58:59.655Z,13.40
2023-02-18T10:01:33.360Z,13.40
2023-02-18T10:04:04.674Z,13.50
2023-02-18T10:06:33.836Z,13.40
2023-02-18T10:09:22.640Z,13.40
2023-02-18T10:11:55.353Z,13.40
2023-02-18T10:14:22.241Z,13.40
2023-02-18T10:16:51.238Z,13.40
2023-02-18T10:19:29.517Z,13.40
2023-02-18T10:21:57.314Z,13.40
2023-02-18T10:24:29.591Z,13.40
2023-02-18T10:26:57.494Z,13.40
2023-02-18T10:29:25.746Z,13.40
2023-02-18T10:32:26.883Z,13.40
2023-02-18T10:35:34.229Z,13.40
2023-02-18T10:38:38.726Z,13.50
2023-02-18T10:41:05.337Z,13.60
2023-02-18T10:43:42.066Z,13.60
2023-02-18T10:46:22.567Z,13.50
2023-02-18T10:49:04.612Z,13.50
2023-02-18T10:51:34.444Z,13.60
2023-02-18T10:54:01.449Z,13.60
2023-02-18T10:56:41.079Z,13.60
2023-02-18T10:59:11.245Z,13.60
2023-02-18T11:01:38.427Z,13.70
2023-02-18T11:04:28.228Z,13.70
2023-02-18T11:06:55.376Z,13.70
2023-02-18T11:09:30.381Z,13.70
2023-02-18T11:12:20.013Z,13.80
2023-02-18T11:14:51.344Z,13.90
2023-02-18T11:17:27.479Z,13.90
2023-02-18T11:19:57.905Z,13.90
2023-02-18T11:22:35.017Z,14.00
2023-02-18T11:25:18.237Z,14.00
2023-02-18T11:27:48.674Z,14.10
2023-02-18T11:30:23.557Z,14.10
2023-02-18T11:33:01.409Z,14.10
2023-02-18T11:35:32.330Z,14.10
2023-02-18T11:38:01.401Z,14.10
2023-02-18T11:40:35.680Z,14.10
2023-02-18T11:43:20.199Z,14.10
2023-02-18T11:45:47.078Z,14.10
2023-02-18T11:48:22.648Z,14.10
2023-02-18T11:50:53.897Z,14.20
2023-02-18T11:53:32.648Z,14.20
2023-02-18T11:56:05.638Z,14.20
2023-02-18T11:58:39.775Z,14.30
2023-02-18T12:01:20.065Z,14.20
2023-02-18T12:04:01.725Z,14.30
2023-02-18T12:06:33.735Z,14.40
2023-02-18T12:09:14.522Z,14.40
2023-02-18T12:11:44.641Z,14.30
2023-02-18T12:14:20.156Z,14.30
2023-02-18T12:17:09.744Z,14.30
2023-02-18T12:20:24.750Z,14.20
2023-02-18T12:23:28.808Z,14.20
2023-02-18T12:26:24.197Z,14.10
2023-02-18T12:29:21.600Z,14.20
2023-02-18T12:31:55.195Z,14.20
2023-02-18T12:34:53.199Z,14.20
2023-02-18T12:37:48.479Z,14.20
2023-02-18T12:40:51.684Z,14.20
2023-02-18T12:43:26.541Z,14.20
2023-02-18T12:46:12.388Z,14.20
2023-02-18T12:49:08.824Z,14.20
2023-02-18T12:51:46.223Z,14.30
2023-02-18T12:54:40.865Z,14.30
2023-02-18T12:57:43.214Z,14.30
2023-02-18T13:00:47.386Z,14.30
2023-02-18T13:03:35.244Z,14.30
2023-02-18T13:06:20.522Z,14.40
2023-02-18T13:09:15.382Z,14.30
2023-02-18T13:12:00.619Z,14.30
2023-02-18T13:14:36.896Z,14.30
2023-02-18T13:17:05.655Z,14.40
2023-02-18T13:19:32.226Z,14.40
2023-02-18T13:22:03.009Z,14.50
2023-02-18T13:24:37.815Z,14.50
2023-02-18T13:27:35.548Z,14.50
2023-02-18T13:30:08.349Z,14.60
2023-02-18T13:32:48.594Z,14.60
2023-02-18T13:35:24.492Z,14.60
2023-02-18T13:38:28.819Z,14.70
2023-02-18T13:40:58.327Z,14.70
2023-02-18T13:43:28.201Z,14.70
2023-02-18T13:46:11.934Z,14.70
2023-02-18T13:48:49.314Z,14.70
2023-02-18T13:51:29.886Z,14.70
2023-02-18T13:54:09.216Z,14.70
2023-02-18T13:56:40.818Z,14.70
2023-02-18T13:59:17.632Z,14.70
2023-02-18T14:01:50.623Z,14.70
2023-02-18T14:04:45.303Z,14.70
2023-02-18T14:07:31.214Z,14.80
2023-02-18T14:10:00.733Z,14.90
2023-02-18T14:12:38.552Z,14.90
2023-02-18T14:15:20.627Z,14.90
2023-02-18T14:18:09.850Z,15.00
2023-02-18T14:20:39.427Z,15.00
2023-02-18T14:23:18.109Z,15.00
2023-02-18T14:28:33.741Z,15.00
2023-02-18T14:31:13.120Z,15.00
2023-02-18T14:33:50.518Z,14.90
2023-02-18T14:36:30.401Z,14.90
2023-02-18T14:39:30.149Z,15.00
2023-02-18T14:42:01.749Z,15.00
2023-02-18T14:44:53.412Z,15.00
2023-02-18T14:47:45.314Z,15.00
2023-02-18T14:50:19.904Z,15.10
2023-02-18T14:52:58.997Z,15.00
2023-02-18T14:55:29.892Z,15.00
2023-02-18T14:58:12.022Z,15.00
2023-02-18T15:00:43.189Z,15.00
2023-02-18T15:03:19.124Z,15.00
2023-02-18T15:05:46.606Z,15.10
2023-02-18T15:08:21.952Z,15.00
2023-02-18T15:11:06.167Z,15.10
2023-02-18T15:13:43.814Z,15.00
2023-02-18T15:16:34.364Z,15.10
2023-02-18T15:19:04.982Z,15.00
2023-02-18T15:21:37.160Z,15.10
2023-02-18T15:24:22.944Z,15.10
2023-02-18T15:26:51.968Z,15.10
2023-02-18T15:29:25.146Z,15.10
2023-02-18T15:34:31.025Z,15.10
2023-02-18T15:36:59.565Z,15.20
2023-02-18T15:39:26.750Z,15.20
2023-02-18T15:42:02.810Z,15.30
2023-02-18T15:44:32.478Z,15.20
2023-02-18T15:47:09.909Z,15.20
2023-02-18T15:49:39.255Z,15.30
2023-02-18T15:52:06.948Z,15.30
2023-02-18T15:54:33.685Z,15.30
2023-02-18T15:57:05.255Z,15.30
2023-02-18T15:59:42.719Z,15.30
2023-02-18T16:02:14.318Z,15.30
2023-02-18T16:04:45.590Z,15.20
2023-02-18T16:07:30.865Z,15.10
2023-02-18T16:10:20.012Z,15.10
2023-02-18T16:12:51.241Z,15.10
2023-02-18T16:15:37.975Z,15.10
2023-02-18T16:18:06.982Z,15.10
2023-02-18T16:20:36.708Z,15.10
2023-02-18T16:23:11.361Z,15.10
2023-02-18T16:25:48.677Z,15.20
2023-02-18T16:28:27.725Z,15.20
2023-02-18T16:30:54.530Z,15.20
2023-02-18T16:33:21.193Z,15.30
2023-02-18T16:35:50.392Z,15.30
2023-02-18T16:38:20.979Z,15.20
2023-02-18T16:40:47.967Z,15.10
2023-02-18T16:43:20.784Z,15.10
2023-02-18T16:45:50.460Z,15.10
2023-02-18T16:48:27.975Z,15.10
2023-02-18T16:50:54.798Z,15.10
2023-02-18T16:53:21.863Z,15.10
2023-02-18T16:55:50.624Z,15.10
2023-02-18T16:58:17.513Z,15.10
2023-02-18T17:00:45.652Z,15.10
2023-02-18T17:03:13.046Z,15.10
2023-02-18T17:05:40.566Z,15.00
2023-02-18T17:08:18.887Z,15.00
2023-02-18T17:10:48.475Z,15.00
2023-02-18T17:13:19.603Z,15.00
2023-02-18T17:15:48.221Z,15.00
2023-02-18T17:18:16.314Z,15.00
2023-02-18T17:20:43.362Z,15.10
2023-02-18T17:23:18.128Z,15.10
2023-02-18T17:25:45.595Z,15.10
2023-02-18T17:28:12.354Z,15.10
2023-02-18T17:30:42.699Z,15.10
2023-02-18T17:33:14.993Z,15.10
2023-02-18T17:35:41.704Z,15.10
2023-02-18T17:38:16.851Z,15.10
2023-02-18T17:40:44.471Z,15.10
2023-02-18T17:43:13.749Z,15.10
2023-02-18T17:45:46.881Z,15.10
2023-02-18T17:48:13.591Z,15.10
2023-02-18T17:50:40.344Z,15.10
2023-02-18T17:53:07.196Z,15.10
2023-02-18T17:55:35.838Z,15.10
2023-02-18T17:58:02.561Z,15.00
2023-02-18T18:00:34.819Z,15.10
2023-02-18T18:03:02.522Z,15.00
2023-02-18T18:05:33.212Z,14.90
2023-02-18T18:08:01.360Z,14.90
2023-02-18T18:10:32.084Z,14.90
2023-02-18T18:13:00.884Z,14.90
2023-02-18T18:15:29.612Z,14.90
2023-02-18T18:17:58.254Z,14.90
2023-02-18T18:20:27.503Z,14.90
2023-02-18T18:22:56.143Z,14.90
2023-02-18T18:25:27.770Z,14.90
2023-02-18T18:27:54.738Z,14.90
2023-02-18T18:30:27.747Z,14.80
2023-02-18T18:32:55.097Z,14.80
2023-02-18T18:35:29.375Z,14.80
2023-02-18T18:37:56.607Z,14.70
2023-02-18T18:40:26.575Z,14.70
2023-02-18T18:42:54.175Z,14.70
2023-02-18T18:45:28.106Z,14.80
2023-02-18T18:47:55.020Z,14.70
2023-02-18T18:50:23.359Z,14.70
2023-02-18T18:52:52.817Z,14.80
2023-02-18T18:55:23.442Z,14.80
2023-02-18T18:57:52.661Z,14.80
2023-02-18T19:00:22.500Z,14.70
2023-02-18T19:02:49.207Z,14.80
2023-02-18T19:05:22.450Z,14.80
2023-02-18T19:07:49.495Z,14.80
2023-02-18T19:10:17.566Z,14.80
2023-02-18T19:12:46.133Z,14.80
2023-02-18T19:15:15.868Z,14.70
2023-02-18T19:17:47.334Z,14.70
2023-02-18T19:20:16.046Z,14.70
2023-02-18T19:22:42.801Z,14.70
2023-02-18T19:25:09.740Z,14.70
2023-02-18T19:27:41.274Z,14.70
2023-02-18T19:30:11.625Z,14.70
2023-02-18T19:32:38.382Z,14.70
2023-02-18T19:35:05.318Z,14.80
2023-02-18T19:37:35.642Z,14.80
2023-02-18T19:40:02.632Z,14.80
2023-02-18T19:42:29.922Z,14.80
2023-02-18T19:44:56.741Z,14.80
2023-02-18T19:47:25.294Z,14.80
2023-02-18T19:49:52.930Z,14.80
2023-02-18T19:52:20.721Z,14.80
2023-02-18T19:54:47.759Z,14.80
2023-02-18T19:57:14.794Z,14.80
2023-02-18T19:59:41.542Z,14.80
2023-02-18T20:02:15.048Z,14.70
2023-02-18T20:04:43.363Z,14.70
2023-02-18T20:07:11.422Z,14.70
2023-02-18T20:09:38.761Z,14.70
2023-02-18T20:12:06.467Z,14.80
2023-02-18T20:14:33.551Z,14.80
2023-02-18T20:17:00.462Z,14.70
2023-02-18T20:19:29.382Z,14.70
2023-02-18T20:24:24.358Z,14.70
2023-02-18T20:26:51.294Z,14.60
2023-02-18T20:29:19.652Z,14.60
2023-02-18T20:31:46.562Z,14.70
2023-02-18T20:34:13.605Z,14.60
2023-02-18T20:36:42.203Z,14.50
2023-02-18T20:39:16.125Z,14.60
2023-02-18T20:41:43.999Z,14.60
2023-02-18T20:44:11.203Z,14.60
2023-02-18T20:46:39.444Z,14.60
2023-02-18T20:49:12.843Z,14.60
2023-02-18T20:51:42.278Z,14.60
2023-02-18T20:54:14.016Z,14.60
2023-02-18T20:56:41.494Z,14.70
2023-02-18T20:59:08.206Z,14.70
2023-02-18T21:01:34.918Z,14.70
2023-02-18T21:04:01.710Z,14.70
2023-02-18T21:06:29.351Z,14.70
2023-02-18T21:08:56.009Z,14.60
2023-02-18T21:11:25.426Z,14.60
2023-02-18T21:13:53.893Z,14.60
2023-02-18T21:16:22.251Z,14.60
2023-02-18T21:18:49.180Z,14.60
2023-02-18T21:21:16.783Z,14.60
2023-02-18T21:23:43.902Z,14.60
2023-02-18T21:26:16.485Z,14.60
2023-02-18T21:28:47.653Z,14.60
2023-02-18T21:31:20.592Z,14.60
2023-02-18T21:33:50.099Z,14.50
2023-02-18T21:36:17.650Z,14.50
2023-02-18T21:38:50.528Z,14.50
2023-02-18T21:41:17.149Z,14.50
2023-02-18T21:43:47.200Z,14.40
2023-02-18T21:46:15.540Z,14.50
2023-02-18T21:49:01.224Z,14.50
2023-02-18T21:51:57.111Z,14.50
2023-02-18T21:54:30.222Z,14.40
2023-02-18T21:56:58.509Z,14.40
2023-02-18T21:59:28.348Z,14.40
2023-02-18T22:01:56.054Z,14.40
2023-02-18T22:04:23.359Z,14.40
2023-02-18T22:06:50.071Z,14.30
2023-02-18T22:09:16.991Z,14.30
2023-02-18T22:11:43.988Z,14.30
2023-02-18T22:14:12.668Z,14.30
2023-02-18T22:16:39.349Z,14.30
2023-02-18T22:19:06.688Z,14.30
2023-02-18T22:21:33.466Z,14.30
2023-02-18T22:24:00.126Z,14.30
2023-02-18T22:26:26.999Z,14.30
2023-02-18T22:28:55.820Z,14.30
2023-02-18T22:31:23.298Z,14.30
2023-02-18T22:33:52.305Z,14.20
2023-02-18T22:36:20.427Z,14.20
2023-02-18T22:38:47.746Z,14.20
2023-02-18T22:41:16.412Z,14.20
2023-02-18T22:43:43.230Z,14.20
2023-02-18T22:46:16.715Z,14.20
2023-02-18T22:48:43.873Z,14.20
2023-02-18T22:51:15.175Z,14.10
2023-02-18T22:53:42.952Z,14.10
2023-02-18T22:56:12.544Z,14.10
2023-02-18T22:58:40.321Z,14.10
2023-02-18T23:01:07.909Z,14.20
2023-02-18T23:03:35.353Z,14.20
2023-02-18T23:06:04.605Z,14.20
2023-02-18T23:08:33.434Z,14.20
2023-02-18T23:11:09.465Z,14.20
2023-02-18T23:13:37.809Z,14.20
2023-02-18T23:16:07.972Z,14.20
2023-02-18T23:18:35.686Z,14.10
2023-02-18T23:21:20.790Z,14.10
2023-02-18T23:23:52.665Z,14.20
2023-02-18T23:26:21.364Z,14.20
2023-02-18T23:28:49.298Z,14.20
2023-02-18T23:31:22.265Z,14.20
2023-02-18T23:33:52.587Z,14.20
2023-02-18T23:36:21.152Z,14.20
2023-02-18T23:38:52.793Z,14.20
2023-02-18T23:41:20.071Z,14.20
2023-02-18T23:43:47.113Z,14.20
2023-02-18T23:46:17.264Z,14.20
2023-02-18T23:48:44.072Z,14.20
2023-02-18T23:51:15.359Z,14.20
2023-02-18T23:53:42.371Z,14.30
2023-02-18T23:56:16.273Z,14.30
2023-02-18T23:58:45.613Z,14.30
